Station Historical Data
Daily Summary for December 27, 2017 Units:  English    Metric   Both
« Previous Day
Next Day »
Daily Weekly Monthly Yearly Custom
  High: Low: Average:
Temperature: TemperatureF °F 4.1 °F 9 °F
Dew Point: DewpointF °F -2.2 °F 1.3 °F
Humidity: Humidity% 57% 70%
Wind Speed: WindSpeedMPHmph 0.0mph 4.7mph
Wind Gust: WindSpeedGustMPHmph - -
Wind- - West
Pressure: PressureIn in 30.50 in -
Precipitation: 0.00 in    
Historical Graphs
 
 
Tabular Data for December 27, 2017
Time Temperature Dew Point Pressure Wind Wind Speed Wind Gust Humidity Rainfall Rate (Hourly)
TemperatureF °F DewpointF °F PressureIn in Calm     Humidity% HourlyPrecipIn in
00:04 7.2 °F -0.2 °F 30.50 in West 4.0 mph 9.0 mph 71% 0.00 in
00:09 7.3 °F -0.1 °F 30.50 in West 4.0 mph 9.0 mph 71% 0.00 in
00:14 7.4 °F 0.0 °F 30.50 in West 4.0 mph 9.0 mph 71% 0.00 in
00:19 7.3 °F -0.1 °F 30.50 in West 4.0 mph 10.0 mph 71% 0.00 in
00:24 7.3 °F -0.1 °F 30.50 in West 5.0 mph 10.0 mph 71% 0.00 in
00:29 7.3 °F -0.1 °F 30.50 in West 4.0 mph 9.0 mph 71% 0.00 in
00:34 7.3 °F -0.1 °F 30.50 in West 3.0 mph 7.0 mph 71% 0.00 in
00:39 7.3 °F -0.1 °F 30.50 in West 4.0 mph 9.0 mph 71% 0.00 in
00:44 7.2 °F -0.2 °F 30.50 in WSW 3.0 mph 9.0 mph 71% 0.00 in
00:49 7.2 °F -0.2 °F 30.50 in WSW 5.0 mph 11.0 mph 71% 0.00 in
00:54 7.2 °F -0.5 °F 30.50 in WSW 5.0 mph 11.0 mph 70% 0.00 in
00:59 7.0 °F -0.7 °F 30.50 in West 5.0 mph 11.0 mph 70% 0.00 in
01:09 6.8 °F -0.9 °F 30.50 in West 3.0 mph 8.0 mph 70% 0.00 in
01:14 6.7 °F -0.7 °F 30.50 in West 4.0 mph 8.0 mph 71% 0.00 in
01:19 6.6 °F -0.8 °F 30.50 in West 4.0 mph 9.0 mph 71% 0.00 in
01:24 6.5 °F -0.9 °F 30.50 in West 4.0 mph 9.0 mph 71% 0.00 in
01:29 6.3 °F -1.1 °F 30.50 in West 4.0 mph 10.0 mph 71% 0.00 in
01:34 6.3 °F -1.1 °F 30.51 in WSW 4.0 mph 10.0 mph 71% 0.00 in
01:39 6.2 °F -1.2 °F 30.51 in WSW 5.0 mph 9.0 mph 71% 0.00 in
01:44 6.1 °F -1.3 °F 30.51 in WSW 4.0 mph 9.0 mph 71% 0.00 in
01:49 6.1 °F -1.3 °F 30.51 in WSW 4.0 mph 9.0 mph 71% 0.00 in
01:54 5.9 °F -1.2 °F 30.51 in SW 6.0 mph 10.0 mph 72% 0.00 in
01:59 5.8 °F -1.3 °F 30.51 in WSW 4.0 mph 8.0 mph 72% 0.00 in
02:04 5.8 °F -1.6 °F 30.51 in SW 4.0 mph 8.0 mph 71% 0.00 in
02:09 5.7 °F -1.4 °F 30.51 in WSW 3.0 mph 6.0 mph 72% 0.00 in
02:14 5.6 °F -1.5 °F 30.51 in WSW 3.0 mph 6.0 mph 72% 0.00 in
02:19 5.4 °F -1.7 °F 30.51 in SW 2.0 mph 5.0 mph 72% 0.00 in
02:24 5.4 °F -1.7 °F 30.51 in WSW 3.0 mph 8.0 mph 72% 0.00 in
02:29 5.3 °F -1.8 °F 30.52 in WSW 4.0 mph 8.0 mph 72% 0.00 in
02:34 5.3 °F -1.8 °F 30.52 in SW 4.0 mph 8.0 mph 72% 0.00 in
02:39 5.4 °F -1.7 °F 30.52 in WSW 4.0 mph 9.0 mph 72% 0.00 in
02:44 5.4 °F -1.4 °F 30.52 in West 4.0 mph 10.0 mph 73% 0.00 in
02:49 5.4 °F -1.7 °F 30.52 in WSW 2.0 mph 5.0 mph 72% 0.00 in
02:54 5.3 °F -1.8 °F 30.51 in WSW 2.0 mph 5.0 mph 72% 0.00 in
02:59 5.3 °F -1.8 °F 30.52 in WSW 3.0 mph 7.0 mph 72% 0.00 in
03:04 5.1 °F -2.0 °F 30.52 in SW 3.0 mph 4.0 mph 72% 0.00 in
03:09 5.0 °F -2.1 °F 30.52 in SW 4.0 mph 7.0 mph 72% 0.00 in
03:14 4.9 °F -1.9 °F 30.52 in West 3.0 mph 8.0 mph 73% 0.00 in
03:19 4.9 °F -1.9 °F 30.52 in West 6.0 mph 6.0 mph 73% 0.00 in
03:24 4.9 °F -1.9 °F 30.52 in West 3.0 mph 9.0 mph 73% 0.00 in
03:29 4.8 °F -2.0 °F 30.52 in West 4.0 mph 8.0 mph 73% 0.00 in
03:34 4.8 °F -2.0 °F 30.51 in SW 3.0 mph 9.0 mph 73% 0.00 in
03:35 4.8 °F -2.0 °F 30.51 in West 4.0 mph 9.0 mph 73% 0.00 in
03:44 4.7 °F -2.1 °F 30.52 in West 3.0 mph 7.0 mph 73% 0.00 in
03:49 4.6 °F -2.2 °F 30.52 in West 2.0 mph 8.0 mph 73% 0.00 in
03:54 4.7 °F -2.1 °F 30.52 in West 2.0 mph 9.0 mph 73% 0.00 in
03:59 4.7 °F -2.1 °F 30.52 in West 4.0 mph 9.0 mph 73% 0.00 in
04:04 4.7 °F -2.1 °F 30.52 in West 3.0 mph 6.0 mph 73% 0.00 in
04:09 4.7 °F -1.8 °F 30.52 in West 2.0 mph 4.0 mph 74% 0.00 in
04:14 4.6 °F -1.9 °F 30.52 in WSW 4.0 mph 6.0 mph 74% 0.00 in
04:19 4.5 °F -2.0 °F 30.52 in West 2.0 mph 7.0 mph 74% 0.00 in
04:24 4.5 °F -2.0 °F 30.52 in West 3.0 mph 7.0 mph 74% 0.00 in
04:29 4.5 °F -2.0 °F 30.52 in WNW 1.0 mph 5.0 mph 74% 0.00 in
04:34 4.4 °F -2.1 °F 30.52 in West 3.0 mph 5.0 mph 74% 0.00 in
04:39 4.4 °F -2.1 °F 30.52 in WSW 5.0 mph 5.0 mph 74% 0.00 in
04:44 4.4 °F -1.8 °F 30.52 in West 3.0 mph 8.0 mph 75% 0.00 in
04:49 4.5 °F -1.7 °F 30.52 in West 4.0 mph 8.0 mph 75% 0.00 in
04:54 4.6 °F -1.6 °F 30.52 in West 4.0 mph 11.0 mph 75% 0.00 in
04:59 4.7 °F -1.5 °F 30.52 in West 5.0 mph 8.0 mph 75% 0.00 in
05:04 4.7 °F -1.5 °F 30.52 in West 2.0 mph 8.0 mph 75% 0.00 in
05:09 4.6 °F -1.6 °F 30.52 in West 4.0 mph 8.0 mph 75% 0.00 in
05:14 4.6 °F -1.6 °F 30.52 in West 4.0 mph 10.0 mph 75% 0.00 in
05:19 4.6 °F -1.6 °F 30.52 in West 4.0 mph 7.0 mph 75% 0.00 in
05:24 4.5 °F -1.7 °F 30.52 in West 4.0 mph 7.0 mph 75% 0.00 in
05:29 4.5 °F -1.7 °F 30.52 in West 5.0 mph 7.0 mph 75% 0.00 in
05:34 4.4 °F -1.8 °F 30.52 in West 6.0 mph 7.0 mph 75% 0.00 in
05:39 4.4 °F -1.8 °F 30.52 in WSW 4.0 mph 8.0 mph 75% 0.00 in
05:44 4.4 °F -1.8 °F 30.52 in WSW 4.0 mph 8.0 mph 75% 0.00 in
05:49 4.4 °F -1.8 °F 30.52 in West 3.0 mph 6.0 mph 75% 0.00 in
05:54 4.3 °F -1.9 °F 30.52 in WSW 3.0 mph 7.0 mph 75% 0.00 in
05:59 4.2 °F -2.0 °F 30.52 in West 3.0 mph 7.0 mph 75% 0.00 in
06:04 4.2 °F -2.0 °F 30.52 in West 3.0 mph 7.0 mph 75% 0.00 in
06:09 4.1 °F -2.1 °F 30.52 in West 3.0 mph 8.0 mph 75% 0.00 in
06:14 4.2 °F -1.7 °F 30.52 in West 3.0 mph 8.0 mph 76% 0.00 in
06:19 4.3 °F -1.6 °F 30.53 in West 3.0 mph 7.0 mph 76% 0.00 in
06:24 4.4 °F -1.5 °F 30.53 in West 2.0 mph 7.0 mph 76% 0.00 in
06:29 4.4 °F -1.5 °F 30.53 in West 3.0 mph 8.0 mph 76% 0.00 in
06:34 4.4 °F -1.5 °F 30.53 in WNW 3.0 mph 8.0 mph 76% 0.00 in
06:39 4.4 °F -1.5 °F 30.53 in WNW 3.0 mph 6.0 mph 76% 0.00 in
06:44 4.3 °F -1.6 °F 30.53 in West 3.0 mph 6.0 mph 76% 0.00 in
06:49 4.3 °F -1.6 °F 30.53 in West 3.0 mph 5.0 mph 76% 0.00 in
06:54 4.2 °F -1.7 °F 30.54 in West 3.0 mph 6.0 mph 76% 0.00 in
06:59 4.1 °F -1.8 °F 30.54 in West 3.0 mph 8.0 mph 76% 0.00 in
07:04 4.1 °F -1.8 °F 30.54 in West 5.0 mph 8.0 mph 76% 0.00 in
07:09 4.2 °F -1.7 °F 30.54 in WNW 2.0 mph 6.0 mph 76% 0.00 in
07:14 4.3 °F -1.6 °F 30.54 in West 3.0 mph 7.0 mph 76% 0.00 in
07:19 4.5 °F -1.4 °F 30.54 in WNW 3.0 mph 10.0 mph 76% 0.00 in
07:24 4.6 °F -1.3 °F 30.54 in West 3.0 mph 8.0 mph 76% 0.00 in
07:29 4.7 °F -1.2 °F 30.54 in West 4.0 mph 8.0 mph 76% 0.00 in
07:34 4.8 °F -1.1 °F 30.54 in West 3.0 mph 7.0 mph 76% 0.00 in
07:39 4.9 °F -1.0 °F 30.54 in West 3.0 mph 7.0 mph 76% 0.00 in
07:44 5.0 °F -0.9 °F 30.54 in West 4.0 mph 8.0 mph 76% 0.00 in
07:49 5.1 °F -0.8 °F 30.54 in West 6.0 mph 9.0 mph 76% 0.00 in
07:54 5.2 °F -0.7 °F 30.54 in West 1.0 mph 8.0 mph 76% 0.00 in
07:59 5.4 °F -0.5 °F 30.54 in West 4.0 mph 11.0 mph 76% 0.00 in
08:04 5.6 °F -0.3 °F 30.54 in West 4.0 mph 11.0 mph 76% 0.00 in
08:09 5.8 °F -0.1 °F 30.54 in West 5.0 mph 10.0 mph 76% 0.00 in
08:14 5.9 °F 0.0 °F 30.54 in SW 7.0 mph 8.0 mph 76% 0.00 in
08:19 6.1 °F 0.2 °F 30.54 in WNW 4.0 mph 7.0 mph 76% 0.00 in
08:24 6.2 °F 0.3 °F 30.54 in WNW 5.0 mph 9.0 mph 76% 0.00 in
08:29 6.2 °F 0.0 °F 30.55 in West 5.0 mph 8.0 mph 75% 0.00 in
08:34 6.2 °F 0.0 °F 30.55 in WNW 4.0 mph 9.0 mph 75% 0.00 in
08:39 6.1 °F -0.1 °F 30.55 in West 6.0 mph 12.0 mph 75% 0.00 in
08:44 6.1 °F -0.1 °F 30.55 in West 6.0 mph 7.0 mph 75% 0.00 in
08:49 6.2 °F 0.0 °F 30.55 in West 7.0 mph 10.0 mph 75% 0.00 in
08:54 6.2 °F 0.0 °F 30.55 in WSW 7.0 mph 10.0 mph 75% 0.00 in
08:59 6.4 °F 0.2 °F 30.55 in West 5.0 mph 9.0 mph 75% 0.00 in
09:04 6.6 °F 0.4 °F 30.56 in West 5.0 mph 10.0 mph 75% 0.00 in
09:09 7.0 °F 0.7 °F 30.56 in WNW 6.0 mph 12.0 mph 75% 0.00 in
09:14 7.3 °F 1.0 °F 30.56 in WNW 6.0 mph 12.0 mph 75% 0.00 in
09:19 7.8 °F 1.5 °F 30.56 in WNW 6.0 mph 12.0 mph 75% 0.00 in
09:24 8.2 °F 1.6 °F 30.56 in WNW 6.0 mph 10.0 mph 74% 0.00 in
09:29 8.6 °F 1.7 °F 30.56 in West 5.0 mph 11.0 mph 73% 0.00 in
09:34 9.0 °F 2.1 °F 30.56 in WNW 3.0 mph 9.0 mph 73% 0.00 in
09:39 9.4 °F 2.2 °F 30.56 in West 5.0 mph 9.0 mph 72% 0.00 in
09:44 9.9 °F 2.7 °F 30.57 in West 7.0 mph 9.0 mph 72% 0.00 in
09:49 10.3 °F 2.8 °F 30.57 in WNW 7.0 mph 10.0 mph 71% 0.00 in
09:54 10.8 °F 3.2 °F 30.57 in NW 5.0 mph 12.0 mph 71% 0.00 in
09:59 11.1 °F 3.2 °F 30.57 in West 5.0 mph 11.0 mph 70% 0.00 in
10:04 11.5 °F 3.3 °F 30.57 in WNW 4.0 mph 10.0 mph 69% 0.00 in
10:09 11.9 °F 3.4 °F 30.58 in WNW 6.0 mph 11.0 mph 68% 0.00 in
10:14 12.2 °F 3.6 °F 30.58 in WNW 6.0 mph 12.0 mph 68% 0.00 in
10:19 12.5 °F 3.6 °F 30.58 in WNW 6.0 mph 12.0 mph 67% 0.00 in
10:24 12.9 °F 4.0 °F 30.58 in West 7.0 mph 15.0 mph 67% 0.00 in
10:29 13.2 °F 4.0 °F 30.58 in West 10.0 mph 13.0 mph 66% 0.00 in
10:34 13.6 °F 4.3 °F 30.58 in WNW 7.0 mph 13.0 mph 66% 0.00 in
10:39 13.8 °F 4.2 °F 30.58 in WNW 7.0 mph 15.0 mph 65% 0.00 in
10:44 14.2 °F 4.2 °F 30.58 in NW 6.0 mph 12.0 mph 64% 0.00 in
10:49 14.5 °F 4.2 °F 30.58 in WNW 7.0 mph 14.0 mph 63% 0.00 in
10:54 14.8 °F 4.5 °F 30.58 in WNW 6.0 mph 12.0 mph 63% 0.00 in
10:59 15.3 °F 4.6 °F 30.58 in WNW 6.0 mph 12.0 mph 62% 0.00 in
11:04 15.5 °F 4.8 °F 30.58 in WNW 5.0 mph 12.0 mph 62% 0.00 in
11:09 15.8 °F 5.1 °F 30.58 in West 9.0 mph 11.0 mph 62% 0.00 in
11:14 15.9 °F 4.4 °F 30.58 in West 6.0 mph 14.0 mph 60% 0.00 in
11:19 16.1 °F 4.6 °F 30.58 in West 7.0 mph 14.0 mph 60% 0.00 in
11:24 16.1 °F 4.6 °F 30.58 in WNW 5.0 mph 7.0 mph 60% 0.00 in
11:29 15.8 °F 4.0 °F 30.58 in West 6.0 mph 15.0 mph 59% 0.00 in
11:34 15.8 °F 4.4 °F 30.58 in West 6.0 mph 15.0 mph 60% 0.00 in
11:39 16.1 °F 4.6 °F 30.58 in WNW 6.0 mph 12.0 mph 60% 0.00 in
11:44 16.5 °F 5.0 °F 30.58 in WNW 5.0 mph 9.0 mph 60% 0.00 in
11:49 16.5 °F 4.7 °F 30.58 in West 9.0 mph 14.0 mph 59% 0.00 in
11:54 16.4 °F 4.6 °F 30.57 in WNW 11.0 mph 14.0 mph 59% 0.00 in
11:59 16.2 °F 4.4 °F 30.57 in WNW 10.0 mph 14.0 mph 59% 0.00 in
12:04 16.2 °F 4.0 °F 30.57 in WNW 7.0 mph 14.0 mph 58% 0.00 in
12:09 16.4 °F 4.6 °F 30.57 in West 5.0 mph 13.0 mph 59% 0.00 in
12:14 16.3 °F 4.1 °F 30.57 in West 7.0 mph 13.0 mph 58% 0.00 in
12:19 16.2 °F 4.4 °F 30.57 in West 7.0 mph 13.0 mph 59% 0.00 in
12:24 16.2 °F 4.4 °F 30.57 in West 6.0 mph 11.0 mph 59% 0.00 in
12:29 15.7 °F 3.9 °F 30.56 in West 6.0 mph 12.0 mph 59% 0.00 in
12:34 15.2 °F 3.4 °F 30.56 in West 6.0 mph 12.0 mph 59% 0.00 in
12:39 14.6 °F 3.2 °F 30.56 in WNW 7.0 mph 14.0 mph 60% 0.00 in
12:44 14.2 °F 3.2 °F 30.56 in WNW 7.0 mph 14.0 mph 61% 0.00 in
12:54 13.7 °F 3.1 °F 30.56 in WSW 2.0 mph 10.0 mph 62% 0.00 in
12:59 13.8 °F 3.2 °F 30.56 in WSW 5.0 mph 10.0 mph 62% 0.00 in
13:04 14.0 °F 3.4 °F 30.56 in West 6.0 mph 15.0 mph 62% 0.00 in
13:09 14.2 °F 3.2 °F 30.56 in WNW 8.0 mph 14.0 mph 61% 0.00 in
13:14 14.8 °F 3.8 °F 30.56 in WNW 12.0 mph 13.0 mph 61% 0.00 in
13:19 15.4 °F 4.3 °F 30.55 in West 8.0 mph 12.0 mph 61% 0.00 in
13:24 16.1 °F 4.6 °F 30.55 in WNW 7.0 mph 12.0 mph 60% 0.00 in
13:29 16.7 °F 4.8 °F 30.55 in WNW 6.0 mph 12.0 mph 59% 0.00 in
13:34 16.9 °F 4.7 °F 30.55 in WNW 6.0 mph 12.0 mph 58% 0.00 in
13:44 16.9 °F 4.7 °F 30.56 in West 7.0 mph 14.0 mph 58% 0.00 in
13:49 17.0 °F 4.4 °F 30.56 in WSW 5.0 mph 11.0 mph 57% 0.00 in
13:54 16.7 °F 4.1 °F 30.56 in WNW 7.0 mph 11.0 mph 57% 0.00 in
13:59 16.9 °F 4.7 °F 30.56 in WSW 5.0 mph 10.0 mph 58% 0.00 in
14:04 17.0 °F 4.7 °F 30.56 in West 5.0 mph 11.0 mph 58% 0.00 in
14:09 16.7 °F 4.1 °F 30.56 in West 6.0 mph 12.0 mph 57% 0.00 in
14:14 16.7 °F 4.1 °F 30.56 in West 7.0 mph 13.0 mph 57% 0.00 in
14:19 16.5 °F 3.9 °F 30.56 in WSW 8.0 mph 11.0 mph 57% 0.00 in
14:24 16.6 °F 4.4 °F 30.56 in WNW 3.0 mph 11.0 mph 58% 0.00 in
14:29 16.9 °F 4.3 °F 30.56 in West 9.0 mph 13.0 mph 57% 0.00 in
14:34 16.8 °F 4.2 °F 30.56 in West 6.0 mph 10.0 mph 57% 0.00 in
14:39 16.8 °F 4.2 °F 30.56 in West 6.0 mph 14.0 mph 57% 0.00 in
14:44 16.4 °F 4.2 °F 30.56 in West 6.0 mph 14.0 mph 58% 0.00 in
14:49 16.3 °F 4.1 °F 30.56 in West 7.0 mph 12.0 mph 58% 0.00 in
14:54 16.1 °F 3.9 °F 30.57 in West 7.0 mph 15.0 mph 58% 0.00 in
14:55 16.1 °F 3.9 °F 30.57 in West 10.0 mph 15.0 mph 58% 0.00 in
14:59 16.1 °F 4.3 °F 30.57 in West 7.0 mph 15.0 mph 59% 0.00 in
15:04 15.9 °F 4.1 °F 30.57 in WSW 4.0 mph 11.0 mph 59% 0.00 in
15:09 15.7 °F 3.9 °F 30.57 in WNW 6.0 mph 13.0 mph 59% 0.00 in
15:14 15.6 °F 4.2 °F 30.57 in West 7.0 mph 13.0 mph 60% 0.00 in
15:19 15.1 °F 3.3 °F 30.57 in West 7.0 mph 13.0 mph 59% 0.00 in
15:24 14.9 °F 3.5 °F 30.57 in WNW 6.0 mph 12.0 mph 60% 0.00 in
15:29 14.9 °F 3.5 °F 30.57 in West 3.0 mph 12.0 mph 60% 0.00 in
15:34 14.8 °F 3.4 °F 30.57 in WSW 4.0 mph 13.0 mph 60% 0.00 in
15:39 14.5 °F 3.1 °F 30.57 in West 5.0 mph 14.0 mph 60% 0.00 in
15:44 14.3 °F 3.3 °F 30.58 in WNW 13.0 mph 13.0 mph 61% 0.00 in
15:49 14.0 °F 3.0 °F 30.58 in West 6.0 mph 13.0 mph 61% 0.00 in
15:54 13.7 °F 2.7 °F 30.58 in West 8.0 mph 13.0 mph 61% 0.00 in
15:59 13.4 °F 2.8 °F 30.58 in West 6.0 mph 14.0 mph 62% 0.00 in
16:04 13.1 °F 2.5 °F 30.58 in West 6.0 mph 14.0 mph 62% 0.00 in
16:09 13.0 °F 2.8 °F 30.58 in West 3.0 mph 11.0 mph 63% 0.00 in
16:14 12.7 °F 2.8 °F 30.58 in West 4.0 mph 12.0 mph 64% 0.00 in
16:19 12.4 °F 2.5 °F 30.58 in West 5.0 mph 14.0 mph 64% 0.00 in
16:24 12.2 °F 2.3 °F 30.59 in West 5.0 mph 14.0 mph 64% 0.00 in
16:29 12.0 °F 2.5 °F 30.59 in West 6.0 mph 12.0 mph 65% 0.00 in
16:34 11.7 °F 2.2 °F 30.59 in West 6.0 mph 12.0 mph 65% 0.00 in
16:39 11.6 °F 2.1 °F 30.58 in WNW 12.0 mph 12.0 mph 65% 0.00 in
16:44 11.4 °F 2.2 °F 30.59 in West 6.0 mph 12.0 mph 66% 0.00 in
16:49 11.3 °F 2.1 °F 30.59 in West 6.0 mph 15.0 mph 66% 0.00 in
16:54 11.1 °F 1.9 °F 30.58 in West 4.0 mph 15.0 mph 66% 0.00 in
16:59 11.0 °F 1.9 °F 30.58 in West 6.0 mph 15.0 mph 66% 0.00 in
17:04 10.9 °F 2.1 °F 30.58 in West 5.0 mph 10.0 mph 67% 0.00 in
17:09 10.8 °F 2.0 °F 30.59 in West 5.0 mph 9.0 mph 67% 0.00 in
17:14 10.6 °F 2.1 °F 30.59 in West 9.0 mph 15.0 mph 68% 0.00 in
17:19 10.5 °F 2.0 °F 30.59 in West 7.0 mph 12.0 mph 68% 0.00 in
17:24 10.5 °F 2.0 °F 30.59 in West 5.0 mph 13.0 mph 68% 0.00 in
17:29 10.4 °F 1.9 °F 30.59 in West 6.0 mph 13.0 mph 68% 0.00 in
17:34 10.2 °F 2.0 °F 30.59 in West 5.0 mph 9.0 mph 69% 0.00 in
17:39 10.1 °F 1.9 °F 30.59 in West 5.0 mph 10.0 mph 69% 0.00 in
17:44 10.0 °F 1.9 °F 30.59 in West 5.0 mph 11.0 mph 69% 0.00 in
17:49 9.9 °F 1.8 °F 30.59 in WNW 6.0 mph 15.0 mph 69% 0.00 in
17:54 9.9 °F 2.1 °F 30.60 in West 6.0 mph 15.0 mph 70% 0.00 in
17:59 9.8 °F 2.0 °F 30.60 in West 5.0 mph 9.0 mph 70% 0.00 in
18:14 9.6 °F 1.8 °F 30.61 in WNW 5.0 mph 10.0 mph 70% 0.00 in
18:19 9.5 °F 1.7 °F 30.61 in West 6.0 mph 10.0 mph 70% 0.00 in
18:24 9.5 °F 2.0 °F 30.61 in WNW 11.0 mph 14.0 mph 71% 0.00 in
18:29 9.5 °F 2.0 °F 30.61 in SW 3.0 mph 14.0 mph 71% 0.00 in
18:34 9.7 °F 2.2 °F 30.61 in WNW 4.0 mph 16.0 mph 71% 0.00 in
18:39 9.7 °F 2.2 °F 30.61 in West 4.0 mph 13.0 mph 71% 0.00 in
18:49 9.7 °F 2.2 °F 30.61 in WNW 6.0 mph 15.0 mph 71% 0.00 in
18:54 9.6 °F 2.1 °F 30.62 in WNW 6.0 mph 13.0 mph 71% 0.00 in
18:59 9.6 °F 2.4 °F 30.62 in WNW 6.0 mph 14.0 mph 72% 0.00 in
19:04 9.7 °F 2.5 °F 30.62 in WNW 6.0 mph 14.0 mph 72% 0.00 in
19:09 9.7 °F 2.8 °F 30.62 in WNW 6.0 mph 11.0 mph 73% 0.00 in
19:14 9.7 °F 3.1 °F 30.63 in West 6.0 mph 10.0 mph 74% 0.00 in
19:19 9.7 °F 3.1 °F 30.63 in West 6.0 mph 11.0 mph 74% 0.00 in
19:24 9.7 °F 3.4 °F 30.63 in NW 11.0 mph 14.0 mph 75% 0.00 in
19:29 9.6 °F 3.3 °F 30.63 in WNW 7.0 mph 14.0 mph 75% 0.00 in
19:34 9.6 °F 3.6 °F 30.63 in WNW 6.0 mph 12.0 mph 76% 0.00 in
19:39 9.5 °F 3.5 °F 30.63 in WNW 5.0 mph 10.0 mph 76% 0.00 in
19:49 9.3 °F 3.5 °F 30.63 in WNW 5.0 mph 9.0 mph 77% 0.00 in
19:54 9.2 °F 3.4 °F 30.63 in WNW 4.0 mph 9.0 mph 77% 0.00 in
19:59 9.1 °F 3.4 °F 30.63 in WNW 4.0 mph 9.0 mph 77% 0.00 in
20:04 9.0 °F 3.3 °F 30.64 in NW 5.0 mph 9.0 mph 77% 0.00 in
20:09 8.9 °F 3.4 °F 30.64 in WNW 5.0 mph 9.0 mph 78% 0.00 in
20:14 8.8 °F 3.3 °F 30.64 in WNW 4.0 mph 6.0 mph 78% 0.00 in
20:19 8.7 °F 3.2 °F 30.64 in North 3.0 mph 10.0 mph 78% 0.00 in
20:24 8.5 °F 3.0 °F 30.64 in NW 3.0 mph 8.0 mph 78% 0.00 in
20:29 8.4 °F 2.9 °F 30.64 in West 3.0 mph 6.0 mph 78% 0.00 in
20:34 8.3 °F 2.9 °F 30.64 in WNW 3.0 mph 6.0 mph 78% 0.00 in
20:39 8.0 °F 2.6 °F 30.64 in WNW 4.0 mph 6.0 mph 78% 0.00 in
20:44 7.9 °F 2.5 °F 30.63 in Calm   4.0 mph 78% 0.00 in
20:49 7.6 °F 2.2 °F 30.63 in WNW 2.0 mph 5.0 mph 78% 0.00 in
20:54 7.4 °F 2.0 °F 30.63 in NW 2.0 mph 5.0 mph 78% 0.00 in
20:59 7.2 °F 1.8 °F 30.63 in NW 2.0 mph 5.0 mph 78% 0.00 in
21:04 7.1 °F 2.0 °F 30.63 in Calm     79% 0.00 in
21:09 7.0 °F 1.9 °F 30.63 in WNW 3.0 mph 3.0 mph 79% 0.00 in
21:14 6.7 °F 1.3 °F 30.63 in WNW 3.0 mph 4.0 mph 78% 0.00 in
21:19 6.6 °F 1.5 °F 30.63 in WNW 3.0 mph 3.0 mph 79% 0.00 in
21:24 6.4 °F 1.3 °F 30.64 in WNW 2.0 mph 5.0 mph 79% 0.00 in
21:29 6.3 °F 1.2 °F 30.64 in WNW 2.0 mph 5.0 mph 79% 0.00 in
21:34 6.4 °F 1.3 °F 30.63 in WNW 1.0 mph 4.0 mph 79% 0.00 in
21:39 6.5 °F 1.6 °F 30.64 in WNW 2.0 mph 5.0 mph 80% 0.00 in
21:44 6.6 °F 1.7 °F 30.64 in West 2.0 mph 5.0 mph 80% 0.00 in
21:54 6.7 °F 1.8 °F 30.65 in West 2.0 mph 4.0 mph 80% 0.00 in
21:59 6.6 °F 2.0 °F 30.65 in West 4.0 mph 4.0 mph 81% 0.00 in
22:04 6.6 °F 2.0 °F 30.65 in West 4.0 mph 4.0 mph 81% 0.00 in
22:09 6.6 °F 2.0 °F 30.65 in West 2.0 mph 5.0 mph 81% 0.00 in
22:19 6.5 °F 1.9 °F 30.65 in WNW 2.0 mph 5.0 mph 81% 0.00 in
22:24 6.4 °F 1.8 °F 30.65 in WNW 3.0 mph 7.0 mph 81% 0.00 in
22:29 6.4 °F 1.8 °F 30.66 in West 4.0 mph 6.0 mph 81% 0.00 in
22:34 6.4 °F 1.8 °F 30.66 in WNW 3.0 mph 6.0 mph 81% 0.00 in
22:39 6.3 °F 1.7 °F 30.66 in WNW 3.0 mph 7.0 mph 81% 0.00 in
22:44 6.4 °F 1.8 °F 30.66 in WNW 3.0 mph 7.0 mph 81% 0.00 in
22:49 6.4 °F 1.8 °F 30.66 in WNW 3.0 mph 6.0 mph 81% 0.00 in
22:54 6.3 °F 1.7 °F 30.66 in West 2.0 mph 5.0 mph 81% 0.00 in
22:59 6.4 °F 1.5 °F 30.65 in West 1.0 mph 4.0 mph 80% 0.00 in
23:04 6.4 °F 1.5 °F 30.66 in West 2.0 mph 4.0 mph 80% 0.00 in
23:09 6.5 °F 1.6 °F 30.66 in West 2.0 mph 4.0 mph 80% 0.00 in
23:14 6.7 °F 1.8 °F 30.66 in West 2.0 mph 5.0 mph 80% 0.00 in
23:19 6.8 °F 1.9 °F 30.66 in West 3.0 mph 6.0 mph 80% 0.00 in
23:24 6.7 °F 1.8 °F 30.65 in West 4.0 mph 10.0 mph 80% 0.00 in
23:29 6.7 °F 1.6 °F 30.65 in West 3.0 mph 9.0 mph 79% 0.00 in
23:34 6.5 °F 1.4 °F 30.65 in West 5.0 mph 7.0 mph 79% 0.00 in
23:39 6.4 °F 1.0 °F 30.66 in West 3.0 mph 8.0 mph 78% 0.00 in
23:44 6.3 °F 0.9 °F 30.65 in West 4.0 mph 8.0 mph 78% 0.00 in
23:49 6.1 °F 0.4 °F 30.65 in West 4.0 mph 8.0 mph 77% 0.00 in
23:54 5.9 °F 0.2 °F 30.65 in West 4.0 mph 6.0 mph 77% 0.00 in
23:59 5.8 °F 0.1 °F 30.66 in West 3.0 mph 6.0 mph 77% 0.00 in
Buffalo, New York, USA
Compliments of Weather Underground - 2.5 mb